Time;durP1;ratioP1;P1;durP2;ratioP2;P2;SDS_P1;SDS_P2;PMS_P1;PMS_P2;Temp;Humidity;BMP_temperature;BMP_pressure;BME280_temperature;BME280_humidity;BME280_pressure;Samples;Min_cycle;Max_cycle;Signal;HPM_P1;HPM_P2
2024/01/14 00:01:43;;;;;;;14.97;7.83;;;1.40;99.90;;;;;;4210246;28;20441;-74
2024/01/14 00:03:46;;;;;;;14.70;7.27;;;1.40;99.90;;;;;;4210556;28;20496;-74
2024/01/14 00:05:50;;;;;;;15.17;7.33;;;1.30;99.90;;;;;;4192541;28;20523;-74
2024/01/14 00:07:56;;;;;;;16.30;8.03;;;1.40;99.90;;;;;;4194470;28;20457;-74
2024/01/14 00:10:09;;;;;;;14.60;7.40;;;1.40;99.90;;;;;;4208149;28;20431;-74
2024/01/14 00:12:32;;;;;;;15.17;7.80;;;1.30;99.90;;;;;;4209226;28;20466;-74
2024/01/14 00:14:57;;;;;;;13.50;6.77;;;1.40;99.90;;;;;;4208756;28;20543;-74
2024/01/14 00:17:10;;;;;;;16.10;7.57;;;1.40;99.90;;;;;;4206094;28;20463;-75
2024/01/14 00:19:14;;;;;;;14.50;7.47;;;1.40;99.90;;;;;;4187418;28;20464;-75
2024/01/14 00:21:18;;;;;;;15.80;7.77;;;1.40;99.90;;;;;;4214006;28;20541;-75
2024/01/14 00:23:23;;;;;;;14.77;7.77;;;1.30;99.90;;;;;;4214072;28;20529;-74
2024/01/14 00:25:25;;;;;;;16.00;7.80;;;1.40;99.90;;;;;;4213760;28;20999;-75
2024/01/14 00:27:26;;;;;;;15.40;7.83;;;1.40;99.90;;;;;;4211844;28;20816;-74
2024/01/14 00:29:30;;;;;;;18.00;7.73;;;1.40;99.90;;;;;;4213600;28;20439;-75
2024/01/14 00:31:33;;;;;;;15.13;7.37;;;1.40;99.90;;;;;;4198218;28;20519;-74
2024/01/14 00:33:39;;;;;;;16.60;8.17;;;1.40;99.90;;;;;;4214396;28;20458;-75
2024/01/14 00:35:43;;;;;;;15.13;7.50;;;1.40;99.90;;;;;;4197581;28;20456;-75
2024/01/14 00:37:47;;;;;;;15.97;7.90;;;1.30;99.90;;;;;;4217202;28;21799;-76
2024/01/14 00:39:49;;;;;;;14.47;7.90;;;1.30;99.90;;;;;;4215099;28;20502;-75
2024/01/14 00:41:53;;;;;;;16.60;7.90;;;1.30;99.90;;;;;;4216554;28;21060;-75
2024/01/14 00:43:57;;;;;;;15.80;7.37;;;1.30;99.90;;;;;;4215607;28;20512;-75
2024/01/14 00:46:06;;;;;;;14.23;7.77;;;1.30;99.90;;;;;;4197389;28;20831;-75
2024/01/14 00:48:10;;;;;;;16.97;8.20;;;1.30;99.90;;;;;;4212665;28;20460;-75
2024/01/14 00:50:15;;;;;;;15.60;7.60;;;1.30;99.90;;;;;;4215772;28;20443;-74
2024/01/14 00:52:18;;;;;;;16.00;7.70;;;1.30;99.90;;;;;;4191351;28;20496;-75
2024/01/14 00:54:25;;;;;;;15.97;7.83;;;1.30;99.90;;;;;;4197194;28;21076;-75
2024/01/14 00:56:27;;;;;;;16.23;8.50;;;1.60;99.90;;;;;;4212950;28;21346;-75
2024/01/14 00:58:29;;;;;;;16.30;8.23;;;1.40;99.90;;;;;;4213687;28;20431;-75
2024/01/14 01:00:31;;;;;;;16.50;8.70;;;1.40;99.90;;;;;;4212567;28;21085;-76
2024/01/14 01:02:35;;;;;;;17.50;8.33;;;1.40;99.90;;;;;;4195241;28;20488;-75
2024/01/14 01:04:39;;;;;;;18.57;8.60;;;1.40;99.90;;;;;;4195484;28;20447;-75
2024/01/14 01:06:42;;;;;;;16.97;7.97;;;1.40;99.90;;;;;;4212304;28;20990;-75
2024/01/14 01:08:48;;;;;;;18.77;8.80;;;1.40;99.90;;;;;;4196582;28;20460;-76
2024/01/14 01:10:49;;;;;;;15.80;7.80;;;1.40;99.90;;;;;;4214815;28;20880;-74
2024/01/14 01:12:58;;;;;;;16.93;8.23;;;1.40;99.90;;;;;;4194230;28;20454;-75
2024/01/14 01:15:08;;;;;;;16.30;8.43;;;1.30;99.90;;;;;;4195704;28;20482;-75
2024/01/14 01:17:10;;;;;;;13.53;7.23;;;1.30;99.90;;;;;;4213691;28;20459;-74
2024/01/14 01:19:14;;;;;;;17.47;7.73;;;1.40;99.90;;;;;;4212812;28;20459;-75
2024/01/14 01:21:19;;;;;;;14.43;7.67;;;1.30;99.90;;;;;;4213239;28;20510;-75
2024/01/14 01:23:23;;;;;;;14.60;7.73;;;1.30;99.90;;;;;;4198882;28;20506;-75
2024/01/14 01:25:30;;;;;;;16.80;7.90;;;1.40;99.90;;;;;;4213243;28;20887;-74
2024/01/14 01:27:33;;;;;;;15.27;7.40;;;1.40;99.90;;;;;;4210434;28;20447;-75
2024/01/14 01:29:35;;;;;;;12.97;7.40;;;1.40;99.90;;;;;;4213383;28;20449;-76
2024/01/14 01:31:37;;;;;;;14.93;6.90;;;1.30;99.90;;;;;;4213506;28;20439;-75
2024/01/14 01:33:40;;;;;;;15.60;7.20;;;1.40;99.90;;;;;;4208688;28;20460;-75
2024/01/14 01:35:50;;;;;;;15.70;8.07;;;1.40;99.90;;;;;;4194942;28;20490;-75
2024/01/14 01:37:58;;;;;;;16.10;7.23;;;1.40;99.90;;;;;;4199270;28;20562;-76
2024/01/14 01:40:04;;;;;;;16.30;7.40;;;1.40;99.90;;;;;;4212854;28;20565;-75
2024/01/14 01:42:07;;;;;;;13.53;7.07;;;1.50;99.90;;;;;;4212504;28;20508;-75
2024/01/14 01:44:12;;;;;;;15.57;7.37;;;1.40;99.90;;;;;;4212079;28;21041;-75
2024/01/14 01:46:16;;;;;;;14.87;7.80;;;1.50;99.90;;;;;;4212638;28;20558;-75
2024/01/14 01:48:19;;;;;;;15.13;7.27;;;1.50;99.90;;;;;;4209538;28;20479;-74
2024/01/14 01:50:27;;;;;;;17.03;7.37;;;1.50;99.90;;;;;;4214353;28;20500;-75
2024/01/14 01:52:32;;;;;;;16.93;7.90;;;1.50;99.90;;;;;;4215678;28;20446;-75
2024/01/14 01:54:39;;;;;;;14.13;7.07;;;1.50;99.90;;;;;;4194915;28;20472;-75
2024/01/14 01:56:44;;;;;;;16.47;7.13;;;1.60;99.90;;;;;;4204743;28;20461;-74
2024/01/14 01:58:46;;;;;;;14.97;7.63;;;1.60;99.90;;;;;;4195284;28;20456;-75
2024/01/14 02:00:50;;;;;;;17.77;7.63;;;1.60;99.90;;;;;;4195659;28;20562;-75
2024/01/14 02:03:00;;;;;;;15.63;7.30;;;1.50;99.90;;;;;;4209481;28;20460;-75
2024/01/14 02:05:06;;;;;;;13.57;7.30;;;1.50;99.90;;;;;;4195459;28;20462;-74
2024/01/14 02:07:15;;;;;;;13.70;6.60;;;1.60;99.90;;;;;;4211150;28;20998;-75
2024/01/14 02:09:21;;;;;;;15.80;6.90;;;1.60;99.90;;;;;;4212753;28;20443;-74
2024/01/14 02:11:23;;;;;;;13.00;7.00;;;1.60;99.90;;;;;;4193577;28;20988;-75
2024/01/14 02:13:25;;;;;;;14.50;7.40;;;1.70;99.90;;;;;;4212927;28;20495;-74
2024/01/14 02:15:29;;;;;;;15.07;7.47;;;1.70;99.90;;;;;;4212208;28;20439;-75
2024/01/14 02:17:36;;;;;;;12.63;6.60;;;1.70;99.90;;;;;;4192531;28;20462;-75
2024/01/14 02:19:47;;;;;;;15.67;7.43;;;1.70;99.90;;;;;;4193661;28;21032;-75
2024/01/14 02:21:55;;;;;;;15.50;7.67;;;1.70;99.90;;;;;;4212878;28;20532;-75
2024/01/14 02:24:13;;;;;;;16.10;8.17;;;1.70;99.90;;;;;;4211200;28;20442;-76
2024/01/14 02:26:17;;;;;;;14.13;7.00;;;1.70;99.90;;;;;;4211544;28;20502;-76
2024/01/14 02:28:21;;;;;;;15.37;7.53;;;1.70;99.90;;;;;;4211251;28;20453;-76
2024/01/14 02:30:25;;;;;;;19.57;7.93;;;1.90;99.90;;;;;;4211939;28;20439;-76
2024/01/14 02:32:29;;;;;;;15.90;7.60;;;1.80;99.90;;;;;;4212180;28;20467;-75
2024/01/14 02:34:36;;;;;;;15.73;7.80;;;1.70;99.90;;;;;;4211279;28;20435;-76
2024/01/14 02:36:38;;;;;;;14.43;7.13;;;1.70;99.90;;;;;;4192380;28;20471;-76
2024/01/14 02:38:41;;;;;;;17.03;7.93;;;1.70;99.90;;;;;;4212383;28;20931;-75
2024/01/14 02:40:46;;;;;;;14.77;7.67;;;1.80;99.90;;;;;;4205775;28;20506;-75
2024/01/14 02:42:49;;;;;;;16.40;7.53;;;1.70;99.90;;;;;;4214111;28;20938;-76
2024/01/14 02:44:52;;;;;;;15.13;7.63;;;1.70;99.90;;;;;;4210604;28;20487;-75
2024/01/14 02:46:55;;;;;;;16.93;7.80;;;1.80;99.90;;;;;;4210900;28;20859;-76
2024/01/14 02:48:58;;;;;;;16.00;7.90;;;1.80;99.90;;;;;;4190398;28;20459;-75
2024/01/14 02:51:01;;;;;;;17.77;8.43;;;1.70;99.90;;;;;;4212424;28;20585;-74
2024/01/14 02:53:04;;;;;;;15.03;7.53;;;1.80;99.90;;;;;;4196381;28;20874;-75
2024/01/14 02:55:06;;;;;;;16.77;8.30;;;1.80;99.90;;;;;;4207676;28;20450;-75
2024/01/14 02:57:16;;;;;;;16.17;8.50;;;1.80;99.90;;;;;;4213577;28;21042;-75
2024/01/14 02:59:18;;;;;;;15.33;7.70;;;1.80;99.90;;;;;;4211291;28;20897;-75
2024/01/14 03:01:20;;;;;;;17.30;8.47;;;1.80;99.90;;;;;;4211271;28;21055;-76
2024/01/14 03:03:24;;;;;;;18.23;7.93;;;1.80;99.90;;;;;;4211065;28;20490;-74
2024/01/14 03:05:30;;;;;;;16.33;7.87;;;1.70;99.90;;;;;;4211485;28;20447;-75
2024/01/14 03:07:34;;;;;;;16.43;7.47;;;1.70;99.90;;;;;;4208272;28;20501;-76
2024/01/14 03:09:37;;;;;;;16.20;7.47;;;1.80;99.90;;;;;;4209938;28;20992;-75
2024/01/14 03:11:46;;;;;;;16.17;7.70;;;1.70;99.90;;;;;;4210730;28;20478;-76
2024/01/14 03:13:49;;;;;;;15.70;7.60;;;1.70;99.90;;;;;;4209999;28;20459;-75
2024/01/14 03:15:53;;;;;;;17.73;8.03;;;1.70;99.90;;;;;;4207742;28;20558;-75
2024/01/14 03:17:59;;;;;;;18.37;8.03;;;1.70;99.90;;;;;;4194439;28;20491;-75
2024/01/14 03:20:05;;;;;;;17.47;7.50;;;1.70;99.90;;;;;;4210582;28;20442;-75
2024/01/14 03:22:07;;;;;;;16.03;7.50;;;1.70;99.90;;;;;;4194442;28;20518;-74
2024/01/14 03:24:11;;;;;;;14.07;7.33;;;1.70;99.90;;;;;;4211983;28;20461;-75
2024/01/14 03:26:19;;;;;;;18.00;8.17;;;1.70;99.90;;;;;;4191013;28;20472;-76
2024/01/14 03:28:23;;;;;;;19.40;9.23;;;1.70;99.90;;;;;;4210463;28;20443;-76
2024/01/14 03:30:28;;;;;;;20.30;9.43;;;1.70;99.90;;;;;;4211991;28;20465;-75
2024/01/14 03:32:32;;;;;;;18.77;8.73;;;1.70;99.90;;;;;;4210188;28;20552;-75
2024/01/14 03:34:40;;;;;;;19.17;9.13;;;1.70;99.90;;;;;;4194460;28;20461;-76
2024/01/14 03:36:43;;;;;;;19.13;8.73;;;1.70;99.90;;;;;;4209817;28;20516;-76
2024/01/14 03:38:52;;;;;;;20.13;9.23;;;1.70;99.90;;;;;;4211372;28;20453;-75
2024/01/14 03:40:55;;;;;;;18.70;9.40;;;1.70;99.90;;;;;;4211998;28;20470;-76
2024/01/14 03:43:00;;;;;;;19.30;9.20;;;1.70;99.90;;;;;;4212258;28;20453;-75
2024/01/14 03:45:04;;;;;;;19.50;9.53;;;1.80;99.90;;;;;;4211111;28;20447;-76
2024/01/14 03:47:11;;;;;;;19.57;9.33;;;1.70;99.90;;;;;;4212431;28;20573;-75
2024/01/14 03:49:14;;;;;;;20.03;9.20;;;1.60;99.90;;;;;;4210931;28;20497;-75
2024/01/14 03:51:23;;;;;;;21.00;9.90;;;1.70;99.90;;;;;;4193211;28;20456;-75
2024/01/14 03:53:28;;;;;;;22.57;9.33;;;1.70;99.90;;;;;;4202774;28;20440;-75
2024/01/14 03:55:32;;;;;;;20.33;9.37;;;1.70;99.90;;;;;;4210969;28;20474;-76
2024/01/14 03:57:37;;;;;;;18.20;9.63;;;1.70;99.90;;;;;;4196988;28;20448;-75
2024/01/14 03:59:46;;;;;;;19.63;9.37;;;1.70;99.90;;;;;;4211266;28;20446;-76
2024/01/14 04:01:51;;;;;;;18.97;9.20;;;1.70;99.90;;;;;;4209819;28;20534;-75
2024/01/14 04:03:57;;;;;;;17.30;8.27;;;1.60;99.90;;;;;;4214945;28;20482;-75
2024/01/14 04:06:05;;;;;;;16.77;8.03;;;1.70;99.90;;;;;;4193223;28;20542;-76
2024/01/14 04:08:08;;;;;;;17.60;8.60;;;1.60;99.90;;;;;;4209820;28;20458;-75
2024/01/14 04:10:13;;;;;;;19.30;9.03;;;1.70;99.90;;;;;;4193408;28;20448;-75
2024/01/14 04:12:20;;;;;;;18.93;8.37;;;1.70;99.90;;;;;;4212510;28;20466;-75
2024/01/14 04:14:22;;;;;;;20.63;8.93;;;1.70;99.90;;;;;;4191308;28;20530;-76
2024/01/14 04:16:36;;;;;;;15.93;8.13;;;1.70;99.90;;;;;;4190572;28;20471;-75
2024/01/14 04:18:46;;;;;;;16.33;7.77;;;1.70;99.90;;;;;;4210257;28;20454;-74
2024/01/14 04:20:49;;;;;;;17.23;7.90;;;1.70;99.90;;;;;;4211883;28;20791;-76
2024/01/14 04:22:53;;;;;;;15.23;7.73;;;1.80;99.90;;;;;;4209919;28;20439;-75
2024/01/14 04:24:56;;;;;;;16.47;7.23;;;1.80;99.90;;;;;;4211677;28;20435;-75
2024/01/14 04:27:01;;;;;;;16.90;7.73;;;1.80;99.90;;;;;;4210914;28;20862;-75
2024/01/14 04:29:04;;;;;;;19.33;8.20;;;1.80;99.90;;;;;;4212017;28;20556;-75
2024/01/14 04:31:09;;;;;;;17.40;8.30;;;1.80;99.90;;;;;;4212347;28;20861;-76
2024/01/14 04:33:14;;;;;;;15.83;7.63;;;1.80;99.90;;;;;;4210262;28;20446;-75
2024/01/14 04:35:16;;;;;;;16.80;8.10;;;1.80;99.90;;;;;;4211336;28;20451;-75
2024/01/14 04:37:21;;;;;;;15.43;7.50;;;1.80;99.90;;;;;;4211195;28;20455;-75
2024/01/14 04:39:25;;;;;;;15.80;7.97;;;1.90;99.90;;;;;;4210491;28;20444;-76
2024/01/14 04:41:31;;;;;;;19.20;7.67;;;1.80;99.90;;;;;;4212937;28;20478;-76
2024/01/14 04:43:34;;;;;;;18.23;8.00;;;1.80;99.90;;;;;;4195696;28;21103;-76
2024/01/14 04:45:38;;;;;;;17.37;7.77;;;1.80;99.90;;;;;;4212683;28;20536;-75
2024/01/14 04:47:40;;;;;;;17.67;7.83;;;1.80;99.90;;;;;;4212767;28;20492;-75
2024/01/14 04:49:47;;;;;;;16.70;7.83;;;1.80;99.90;;;;;;4187973;28;20492;-75
2024/01/14 04:51:53;;;;;;;16.53;7.87;;;1.70;99.90;;;;;;4212181;28;20522;-75
2024/01/14 04:53:59;;;;;;;15.00;7.57;;;1.70;99.90;;;;;;4209748;28;20447;-75
2024/01/14 04:56:06;;;;;;;17.83;8.17;;;1.70;99.90;;;;;;4210906;28;20475;-75
2024/01/14 04:58:12;;;;;;;20.40;7.97;;;1.60;99.90;;;;;;4211494;28;20828;-75
2024/01/14 05:00:15;;;;;;;19.13;8.60;;;1.60;99.90;;;;;;4212983;28;20451;-75
2024/01/14 05:02:18;;;;;;;20.53;9.13;;;1.60;99.90;;;;;;4193649;28;20476;-76
2024/01/14 05:04:19;;;;;;;20.20;8.63;;;1.60;99.90;;;;;;4211461;28;20438;-76
2024/01/14 05:06:24;;;;;;;17.60;8.00;;;1.50;99.90;;;;;;4207406;28;20462;-75
2024/01/14 05:08:26;;;;;;;18.47;8.27;;;1.50;99.90;;;;;;4210869;28;20442;-75
2024/01/14 05:10:33;;;;;;;17.07;7.60;;;1.50;99.90;;;;;;4207795;28;20594;-75
2024/01/14 05:12:38;;;;;;;20.27;9.17;;;1.40;99.90;;;;;;4211506;28;20841;-75
2024/01/14 05:14:40;;;;;;;20.50;8.70;;;1.40;99.90;;;;;;4215502;28;20994;-75
2024/01/14 05:16:45;;;;;;;19.23;8.50;;;1.40;99.90;;;;;;4205850;28;20478;-74
2024/01/14 05:18:47;;;;;;;21.53;9.27;;;1.40;99.90;;;;;;4213010;28;20467;-75
2024/01/14 05:20:49;;;;;;;20.97;8.77;;;1.40;99.90;;;;;;4209459;28;20460;-75
2024/01/14 05:22:50;;;;;;;23.33;10.00;;;1.40;99.90;;;;;;4213191;28;20487;-75
2024/01/14 05:24:52;;;;;;;20.80;8.73;;;1.40;99.90;;;;;;4214955;28;20494;-75
2024/01/14 05:26:56;;;;;;;21.90;9.80;;;1.40;99.90;;;;;;4216942;28;20479;-75
2024/01/14 05:28:59;;;;;;;23.13;10.27;;;1.40;99.90;;;;;;4216689;28;20891;-75
2024/01/14 05:31:01;;;;;;;19.03;8.70;;;1.50;99.90;;;;;;4215437;28;20486;-75
2024/01/14 05:33:03;;;;;;;22.87;9.57;;;1.40;99.90;;;;;;4214563;28;20489;-75
2024/01/14 05:35:06;;;;;;;22.03;9.10;;;1.40;99.90;;;;;;4216410;28;20459;-75
2024/01/14 05:37:11;;;;;;;18.37;8.23;;;1.40;99.90;;;;;;4219045;28;20577;-75
2024/01/14 05:39:13;;;;;;;18.73;8.93;;;1.40;99.90;;;;;;4214597;28;21026;-75
2024/01/14 05:41:15;;;;;;;18.60;8.57;;;1.40;99.90;;;;;;4213636;28;20928;-75
2024/01/14 05:43:18;;;;;;;20.70;8.93;;;1.40;99.90;;;;;;4212674;28;20611;-75
2024/01/14 05:45:19;;;;;;;22.30;9.07;;;1.40;99.90;;;;;;4209261;28;20543;-75
2024/01/14 05:47:21;;;;;;;22.63;8.73;;;1.40;99.90;;;;;;4211138;28;20487;-75
2024/01/14 05:49:23;;;;;;;24.17;9.17;;;1.30;99.90;;;;;;4214441;28;20205;-75
2024/01/14 05:51:25;;;;;;;19.93;8.57;;;1.30;99.90;;;;;;4212050;28;20596;-75
2024/01/14 05:53:27;;;;;;;20.40;9.20;;;1.30;99.90;;;;;;4212455;28;20491;-75
2024/01/14 05:55:29;;;;;;;20.60;9.13;;;1.30;99.90;;;;;;4212172;28;20481;-75
2024/01/14 05:57:31;;;;;;;20.63;9.30;;;1.30;99.90;;;;;;4210587;28;20950;-74
2024/01/14 05:59:35;;;;;;;21.83;8.90;;;1.30;99.90;;;;;;4209255;28;20487;-75
2024/01/14 06:01:38;;;;;;;20.80;9.50;;;1.30;99.90;;;;;;4212468;28;20510;-75
2024/01/14 06:03:40;;;;;;;21.97;9.47;;;1.20;99.90;;;;;;4192134;28;20460;-74
2024/01/14 06:05:46;;;;;;;24.27;9.10;;;1.20;99.90;;;;;;4209993;28;20471;-75
2024/01/14 06:07:49;;;;;;;20.30;9.43;;;1.10;99.90;;;;;;4194041;28;20462;-75
2024/01/14 06:09:51;;;;;;;21.07;9.23;;;1.10;99.90;;;;;;4194105;28;20491;-75
2024/01/14 06:11:55;;;;;;;23.93;9.47;;;1.10;99.90;;;;;;4194828;28;20448;-75
2024/01/14 06:13:57;;;;;;;23.13;9.90;;;1.10;99.90;;;;;;4213508;28;20512;-75
2024/01/14 06:16:02;;;;;;;22.57;9.87;;;1.10;99.90;;;;;;4211175;28;20474;-75
2024/01/14 06:18:03;;;;;;;22.00;10.67;;;1.20;99.90;;;;;;4195158;28;20553;-74
2024/01/14 06:20:09;;;;;;;32.33;12.40;;;1.10;99.90;;;;;;4212079;28;20976;-74
2024/01/14 06:22:13;;;;;;;28.20;11.00;;;1.10;99.90;;;;;;4209269;28;20482;-75
2024/01/14 06:24:17;;;;;;;28.37;11.43;;;1.10;99.90;;;;;;4210904;28;20455;-75
2024/01/14 06:26:19;;;;;;;28.73;12.23;;;1.10;99.90;;;;;;4195390;28;20496;-75
2024/01/14 06:28:23;;;;;;;31.03;11.63;;;1.20;99.90;;;;;;4209895;28;20454;-75
2024/01/14 06:30:27;;;;;;;25.50;11.80;;;1.20;99.90;;;;;;4195256;28;20464;-74
2024/01/14 06:32:32;;;;;;;29.70;13.00;;;1.20;99.90;;;;;;4210597;28;20962;-74
2024/01/14 06:34:35;;;;;;;31.37;12.27;;;1.20;99.90;;;;;;4209993;28;20554;-74
2024/01/14 06:36:39;;;;;;;28.93;12.73;;;1.10;99.90;;;;;;4210640;28;20553;-74
2024/01/14 06:38:40;;;;;;;29.60;12.00;;;1.20;99.90;;;;;;4210081;28;20942;-75
2024/01/14 06:40:46;;;;;;;25.73;10.60;;;1.20;99.90;;;;;;4210343;28;20891;-75
2024/01/14 06:42:48;;;;;;;24.67;10.70;;;1.20;99.90;;;;;;4192129;28;20529;-75
2024/01/14 06:44:52;;;;;;;25.40;10.33;;;1.20;99.90;;;;;;4192408;28;20453;-74
2024/01/14 06:46:56;;;;;;;25.33;10.57;;;1.20;99.90;;;;;;4207477;28;20482;-75
2024/01/14 06:49:00;;;;;;;24.53;11.00;;;1.20;99.90;;;;;;4209118;28;20463;-75
2024/01/14 06:51:07;;;;;;;29.13;11.30;;;1.20;99.90;;;;;;4206025;28;20491;-76
2024/01/14 06:53:10;;;;;;;27.07;10.53;;;1.20;99.90;;;;;;4207456;28;20529;-75
2024/01/14 06:55:27;;;;;;;24.37;9.80;;;1.20;99.90;;;;;;4193188;28;20444;-75
2024/01/14 06:57:29;;;;;;;22.73;10.57;;;1.10;99.90;;;;;;4206192;28;20436;-75
2024/01/14 06:59:32;;;;;;;25.10;10.20;;;1.20;99.90;;;;;;4207408;28;20440;-75
2024/01/14 07:01:37;;;;;;;23.77;10.10;;;1.20;99.90;;;;;;4206336;28;20904;-75
2024/01/14 07:03:39;;;;;;;25.13;11.53;;;1.30;99.90;;;;;;4193551;28;20444;-75
2024/01/14 07:05:43;;;;;;;27.10;11.07;;;1.30;99.90;;;;;;4206886;28;20478;-75
2024/01/14 07:07:48;;;;;;;24.93;9.93;;;1.30;99.90;;;;;;4208938;28;20482;-75
2024/01/14 07:09:50;;;;;;;24.50;10.67;;;1.20;99.90;;;;;;4193606;28;20504;-75
2024/01/14 07:11:52;;;;;;;23.40;9.93;;;1.20;99.90;;;;;;4193555;28;20499;-75
2024/01/14 07:13:55;;;;;;;22.97;10.33;;;1.30;99.90;;;;;;4211401;28;20479;-75
2024/01/14 07:15:59;;;;;;;23.03;10.57;;;1.30;99.90;;;;;;4192297;28;20482;-75
2024/01/14 07:18:04;;;;;;;21.10;10.20;;;1.20;99.90;;;;;;4208027;28;20450;-75
2024/01/14 07:20:09;;;;;;;21.90;9.97;;;1.30;99.90;;;;;;4209579;28;20450;-74
2024/01/14 07:22:12;;;;;;;23.63;9.63;;;1.30;99.90;;;;;;4204401;28;20528;-75
2024/01/14 07:24:14;;;;;;;24.23;9.77;;;1.40;99.90;;;;;;4207152;28;20803;-75
2024/01/14 07:26:17;;;;;;;22.03;9.47;;;1.30;99.90;;;;;;4213330;28;20899;-75
2024/01/14 07:28:20;;;;;;;21.20;9.83;;;1.30;99.90;;;;;;4203319;28;21082;-75
2024/01/14 07:30:23;;;;;;;20.10;9.60;;;1.30;99.90;;;;;;4209716;28;20475;-75
2024/01/14 07:32:29;;;;;;;18.40;9.17;;;1.30;99.90;;;;;;4191709;28;20482;-74
2024/01/14 07:34:32;;;;;;;20.00;8.43;;;1.30;99.90;;;;;;4191692;28;20464;-74
2024/01/14 07:36:36;;;;;;;21.77;9.23;;;1.40;99.90;;;;;;4209012;28;20462;-75
2024/01/14 07:38:40;;;;;;;20.37;9.03;;;1.30;99.90;;;;;;4204683;28;20512;-75
2024/01/14 07:40:45;;;;;;;21.13;9.03;;;1.30;99.90;;;;;;4206520;28;20538;-74
2024/01/14 07:42:46;;;;;;;22.13;9.03;;;1.30;99.90;;;;;;4208019;28;20470;-74
2024/01/14 07:44:50;;;;;;;22.70;8.97;;;1.40;99.90;;;;;;4189767;28;20445;-76
2024/01/14 07:46:54;;;;;;;22.37;8.83;;;1.40;99.90;;;;;;4189501;28;20582;-74
2024/01/14 07:48:58;;;;;;;19.63;9.07;;;1.40;99.90;;;;;;4191216;28;20451;-74
2024/01/14 07:51:01;;;;;;;22.53;8.80;;;1.30;99.90;;;;;;4211662;28;20447;-75
2024/01/14 07:53:09;;;;;;;21.00;9.00;;;1.30;99.90;;;;;;4203171;28;20459;-75
2024/01/14 07:55:13;;;;;;;21.00;9.23;;;1.30;99.90;;;;;;4219110;28;20442;-74
2024/01/14 07:57:17;;;;;;;20.50;8.53;;;1.30;99.90;;;;;;4215327;28;20475;-74
2024/01/14 07:59:23;;;;;;;20.23;8.63;;;1.30;99.90;;;;;;4211754;28;20442;-74
2024/01/14 08:01:25;;;;;;;21.27;8.47;;;1.30;99.90;;;;;;4210957;28;20469;-75
2024/01/14 08:03:30;;;;;;;23.10;9.33;;;1.30;99.90;;;;;;4206441;28;20493;-73
2024/01/14 08:05:30;;;;;;;17.97;8.00;;;1.20;99.90;;;;;;4210280;28;20512;-74
2024/01/14 08:07:35;;;;;;;18.50;8.77;;;1.20;99.90;;;;;;4209054;28;20964;-73
2024/01/14 08:09:40;;;;;;;18.30;8.30;;;1.20;99.90;;;;;;4196048;28;20480;-74
2024/01/14 08:11:45;;;;;;;20.47;8.97;;;1.20;99.90;;;;;;4212296;28;20435;-77
2024/01/14 08:13:49;;;;;;;20.97;8.10;;;1.20;99.90;;;;;;4210850;28;20454;-75
2024/01/14 08:15:50;;;;;;;20.87;8.73;;;1.20;99.90;;;;;;4192650;28;21074;-76
2024/01/14 08:17:53;;;;;;;16.33;7.93;;;1.20;99.90;;;;;;4208791;28;20456;-74
2024/01/14 08:19:58;;;;;;;17.83;8.20;;;1.30;99.90;;;;;;4209295;28;20473;-74
2024/01/14 08:22:00;;;;;;;19.83;8.30;;;1.30;99.90;;;;;;4202699;28;20501;-74
2024/01/14 08:24:04;;;;;;;17.57;8.20;;;1.30;99.90;;;;;;4209967;28;20451;-74
2024/01/14 08:26:07;;;;;;;19.90;8.60;;;1.30;99.90;;;;;;4192764;28;20480;-75
2024/01/14 08:28:11;;;;;;;24.27;9.00;;;1.30;99.90;;;;;;4210679;28;20446;-75
2024/01/14 08:30:14;;;;;;;20.23;8.60;;;1.40;99.90;;;;;;4192206;28;20447;-75
2024/01/14 08:32:15;;;;;;;23.20;8.60;;;1.50;99.90;;;;;;4190818;28;21184;-75
2024/01/14 08:34:20;;;;;;;23.83;8.77;;;1.60;99.90;;;;;;4211999;28;20430;-75
2024/01/14 08:36:22;;;;;;;17.60;8.10;;;1.50;99.90;;;;;;4210397;28;20544;-76
2024/01/14 08:38:27;;;;;;;16.97;7.13;;;1.60;99.90;;;;;;4193183;28;20455;-75
2024/01/14 08:40:29;;;;;;;16.63;8.00;;;1.60;99.90;;;;;;4206702;28;20470;-75
2024/01/14 08:42:33;;;;;;;16.60;7.70;;;1.60;99.90;;;;;;4210487;28;20482;-76
2024/01/14 08:44:39;;;;;;;15.33;7.43;;;1.70;99.90;;;;;;4194645;28;21023;-75
2024/01/14 08:46:44;;;;;;;21.23;8.37;;;1.70;99.90;;;;;;4211309;28;20474;-74
2024/01/14 08:48:50;;;;;;;18.90;7.87;;;1.70;99.90;;;;;;4211160;28;20581;-75
2024/01/14 08:50:53;;;;;;;18.17;7.67;;;1.70;99.90;;;;;;4213749;28;20439;-75
2024/01/14 08:52:58;;;;;;;17.60;8.03;;;1.70;99.90;;;;;;4210958;28;20500;-74
2024/01/14 08:55:04;;;;;;;16.97;7.63;;;1.70;99.90;;;;;;4213955;28;20447;-75
2024/01/14 08:57:07;;;;;;;16.43;7.73;;;1.70;99.90;;;;;;4209859;28;20868;-74
2024/01/14 08:59:12;;;;;;;16.13;7.77;;;1.70;99.90;;;;;;4213304;28;20821;-75
2024/01/14 09:01:17;;;;;;;14.80;7.23;;;1.70;99.90;;;;;;4193460;28;20460;-75
2024/01/14 09:03:18;;;;;;;17.57;7.57;;;1.70;99.90;;;;;;4213666;28;20467;-75
2024/01/14 09:05:20;;;;;;;16.37;7.47;;;1.80;99.90;;;;;;4212165;28;20447;-75
2024/01/14 09:07:24;;;;;;;17.23;7.43;;;1.70;99.90;;;;;;4194877;28;20521;-75
2024/01/14 09:09:26;;;;;;;13.73;6.80;;;1.70;99.90;;;;;;4213264;28;20484;-75
2024/01/14 09:11:28;;;;;;;14.50;6.70;;;1.70;99.90;;;;;;4212260;28;21229;-75
2024/01/14 09:13:30;;;;;;;15.13;7.13;;;1.70;99.90;;;;;;4213094;28;20431;-75
2024/01/14 09:15:32;;;;;;;16.03;7.13;;;1.70;99.90;;;;;;4191661;28;20952;-75
2024/01/14 09:17:35;;;;;;;15.10;7.07;;;1.70;99.90;;;;;;4211397;28;20991;-75
2024/01/14 09:19:37;;;;;;;16.20;6.73;;;1.70;99.90;;;;;;4210752;28;20435;-76
2024/01/14 09:21:39;;;;;;;19.17;8.03;;;1.70;99.90;;;;;;4209625;28;20485;-76
2024/01/14 09:23:41;;;;;;;16.17;6.93;;;1.70;99.90;;;;;;4208891;28;20549;-75
2024/01/14 09:25:43;;;;;;;14.57;7.37;;;1.70;99.90;;;;;;4211858;28;20493;-75
2024/01/14 09:27:45;;;;;;;15.30;7.00;;;1.70;99.90;;;;;;4193186;28;20458;-74
2024/01/14 09:29:47;;;;;;;16.43;7.57;;;1.70;99.90;;;;;;4214439;28;20497;-77
2024/01/14 09:31:48;;;;;;;17.03;7.10;;;1.70;99.90;;;;;;4212663;28;20447;-81
2024/01/14 09:33:52;;;;;;;15.50;6.97;;;1.80;99.90;;;;;;4195083;28;20437;-75
2024/01/14 09:35:54;;;;;;;14.83;7.50;;;1.80;99.90;;;;;;4213994;28;21135;-74
2024/01/14 09:37:56;;;;;;;17.00;7.77;;;1.80;99.90;;;;;;4210557;28;20447;-75
2024/01/14 09:39:58;;;;;;;14.93;7.10;;;1.80;99.90;;;;;;4194362;28;20456;-74
2024/01/14 09:42:05;;;;;;;17.20;7.97;;;1.90;99.90;;;;;;4197452;28;20483;-74
2024/01/14 09:44:14;;;;;;;17.20;7.30;;;1.90;99.90;;;;;;4209496;28;20494;-74
2024/01/14 09:46:16;;;;;;;21.33;8.17;;;1.90;99.90;;;;;;4211901;28;20578;-74
2024/01/14 09:48:18;;;;;;;16.13;7.07;;;2.00;99.90;;;;;;4208463;28;20536;-73
2024/01/14 09:50:23;;;;;;;18.47;8.37;;;2.00;99.90;;;;;;4212318;28;20911;-73
2024/01/14 09:52:29;;;;;;;19.27;7.97;;;2.10;99.90;;;;;;4194388;28;20454;-76
2024/01/14 09:54:32;;;;;;;17.20;8.13;;;2.10;99.90;;;;;;4193337;28;20450;-73
2024/01/14 09:56:35;;;;;;;15.73;7.47;;;2.10;99.90;;;;;;4207382;28;20550;-75
2024/01/14 09:58:40;;;;;;;16.40;7.60;;;2.20;99.90;;;;;;4213016;28;20439;-75
2024/01/14 10:00:45;;;;;;;18.17;7.40;;;2.10;99.90;;;;;;4192739;28;21052;-75
2024/01/14 10:02:47;;;;;;;15.50;7.23;;;2.20;99.90;;;;;;4212771;28;20451;-75
2024/01/14 10:04:49;;;;;;;18.37;7.30;;;2.20;99.90;;;;;;4193549;28;20543;-74
2024/01/14 10:06:52;;;;;;;16.93;7.57;;;2.30;99.90;;;;;;4213099;28;20475;-75
2024/01/14 10:08:54;;;;;;;17.30;7.87;;;2.30;99.90;;;;;;4212281;28;21031;-74
2024/01/14 10:10:57;;;;;;;15.43;7.23;;;2.20;99.90;;;;;;4208499;28;20451;-74
2024/01/14 10:12:58;;;;;;;16.37;8.10;;;2.30;99.90;;;;;;4212101;28;20466;-75
2024/01/14 10:15:01;;;;;;;15.50;7.70;;;2.30;99.90;;;;;;4197215;28;20436;-76
2024/01/14 10:17:03;;;;;;;19.07;8.87;;;2.30;99.90;;;;;;4196476;28;20487;-77
2024/01/14 10:19:06;;;;;;;24.23;8.67;;;2.30;99.90;;;;;;4213192;28;20470;-76
2024/01/14 10:21:09;;;;;;;20.70;8.43;;;2.30;99.90;;;;;;4200799;28;20448;-77
2024/01/14 10:23:12;;;;;;;17.73;7.80;;;2.30;99.90;;;;;;4214798;28;20562;-76
2024/01/14 10:25:16;;;;;;;19.73;8.77;;;2.20;99.90;;;;;;4216119;28;20487;-78
2024/01/14 10:27:18;;;;;;;18.77;8.10;;;2.30;99.90;;;;;;4194972;28;20472;-76
2024/01/14 10:29:20;;;;;;;18.17;8.20;;;2.20;99.90;;;;;;4212924;28;20452;-80
2024/01/14 10:31:25;;;;;;;17.07;8.37;;;2.30;99.90;;;;;;4195314;28;20464;-77
2024/01/14 10:33:33;;;;;;;21.63;9.10;;;2.20;99.90;;;;;;4193263;28;20466;-80
2024/01/14 10:35:37;;;;;;;23.30;8.77;;;2.20;99.90;;;;;;4193177;28;20475;-78
2024/01/14 10:37:39;;;;;;;16.77;7.90;;;2.30;99.90;;;;;;4212336;28;20462;-79
2024/01/14 10:39:43;;;;;;;16.50;8.33;;;2.30;99.90;;;;;;4195021;28;20448;-79
2024/01/14 10:41:46;;;;;;;16.77;7.83;;;2.20;99.90;;;;;;4208792;28;20548;-81
2024/01/14 10:43:47;;;;;;;16.40;7.40;;;2.30;99.90;;;;;;4210906;28;20993;-80
2024/01/14 10:45:50;;;;;;;14.33;6.70;;;2.30;99.90;;;;;;4214306;28;20474;-81